Time;durP1;ratioP1;P1;durP2;ratioP2;P2;SDS_P1;SDS_P2;PMS_P1;PMS_P2;Temp;Humidity;BMP_temperature;BMP_pressure;BME280_temperature;BME280_humidity;BME280_pressure;Samples;Min_cycle;Max_cycle;Signal;HPM_P1;HPM_P2
2023/10/11 00:02:58;;;;;;;17.52;5.03;;;11.90;99.90;;;;;;4995194;28;20050;-61
2023/10/11 00:05:25;;;;;;;15.38;5.32;;;11.80;99.90;;;;;;4995532;28;20062;-60
2023/10/11 00:07:57;;;;;;;13.30;5.57;;;11.70;99.90;;;;;;4995313;28;20057;-60
2023/10/11 00:10:24;;;;;;;23.73;5.47;;;11.60;99.90;;;;;;4995478;28;20045;-60
2023/10/11 00:12:51;;;;;;;16.83;4.97;;;11.50;99.90;;;;;;4989988;28;20051;-60
2023/10/11 00:15:18;;;;;;;13.13;6.03;;;11.30;99.90;;;;;;4995846;28;20047;-60
2023/10/11 00:17:46;;;;;;;19.83;5.82;;;11.30;99.90;;;;;;4995384;28;20074;-61
2023/10/11 00:20:19;;;;;;;17.27;5.63;;;11.30;99.90;;;;;;4992808;28;20046;-61
2023/10/11 00:22:46;;;;;;;19.55;5.15;;;11.20;99.90;;;;;;4995293;28;20392;-60
2023/10/11 00:25:23;;;;;;;19.40;5.78;;;11.30;99.90;;;;;;4995276;28;20045;-59
2023/10/11 00:27:56;;;;;;;18.73;6.13;;;11.20;99.90;;;;;;4990308;28;20046;-60
2023/10/11 00:30:25;;;;;;;18.80;6.55;;;11.20;99.90;;;;;;4986799;28;20093;-61
2023/10/11 00:32:53;;;;;;;11.15;4.78;;;11.20;99.90;;;;;;4995391;28;20058;-60
2023/10/11 00:35:24;;;;;;;20.67;5.25;;;11.10;99.90;;;;;;4989320;28;20050;-60
2023/10/11 00:37:52;;;;;;;16.58;5.40;;;11.10;99.90;;;;;;4987552;28;20041;-61
2023/10/11 00:40:25;;;;;;;16.77;5.13;;;11.00;99.90;;;;;;4989675;28;20121;-61
2023/10/11 00:42:52;;;;;;;15.70;5.00;;;11.00;99.90;;;;;;4990104;28;20065;-60
2023/10/11 00:45:23;;;;;;;18.65;5.47;;;11.00;99.90;;;;;;4993895;28;20038;-60
2023/10/11 00:47:52;;;;;;;20.02;5.30;;;11.00;99.90;;;;;;4989703;28;20065;-61
2023/10/11 00:50:21;;;;;;;19.35;5.93;;;11.00;99.90;;;;;;4993239;28;20088;-60
2023/10/11 00:52:49;;;;;;;18.38;4.90;;;10.90;99.90;;;;;;4992478;28;20088;-59
2023/10/11 00:55:23;;;;;;;15.60;5.00;;;10.90;99.90;;;;;;4993166;28;20064;-60
2023/10/11 00:57:53;;;;;;;19.85;5.38;;;10.80;99.90;;;;;;4985263;28;20697;-61
2023/10/11 01:00:23;;;;;;;21.55;5.68;;;10.80;99.90;;;;;;4992130;28;20121;-60
2023/10/11 01:02:52;;;;;;;14.05;5.15;;;10.80;99.90;;;;;;4994797;28;20034;-59
2023/10/11 01:05:19;;;;;;;13.38;4.78;;;10.90;99.90;;;;;;4994078;28;20408;-60
2023/10/11 01:07:46;;;;;;;;;;;10.80;99.90;;;;;;4993285;28;20034;-60
2023/10/11 01:10:13;;;;;;;23.27;4.93;;;10.80;99.90;;;;;;4989368;28;19929;-60
2023/10/11 01:12:40;;;;;;;15.57;6.00;;;10.80;99.90;;;;;;4986498;28;20046;-58
2023/10/11 01:15:13;;;;;;;13.13;5.45;;;10.80;99.90;;;;;;4994702;28;20084;-60
2023/10/11 01:17:40;;;;;;;22.85;6.40;;;10.90;99.90;;;;;;4993086;28;20061;-60
2023/10/11 01:20:13;;;;;;;18.10;5.53;;;11.00;99.90;;;;;;4994512;28;20101;-61
2023/10/11 01:22:44;;;;;;;18.90;7.10;;;11.20;99.90;;;;;;4983992;28;20130;-59
2023/10/11 01:25:21;;;;;;;23.33;6.40;;;11.30;99.90;;;;;;4986196;28;20050;-60
2023/10/11 01:27:48;;;;;;;22.17;6.53;;;11.40;99.90;;;;;;4991718;28;20050;-60
2023/10/11 01:30:15;;;;;;;19.33;5.90;;;11.50;99.90;;;;;;4992372;28;20476;-61
2023/10/11 01:32:42;;;;;;;13.27;5.28;;;11.40;99.90;;;;;;4992699;28;20046;-59
2023/10/11 01:35:19;;;;;;;17.00;4.95;;;11.30;99.90;;;;;;4984689;28;20042;-59
2023/10/11 01:37:54;;;;;;;17.13;4.93;;;11.10;99.90;;;;;;4990767;28;20125;-60
2023/10/11 01:40:21;;;;;;;16.58;5.25;;;11.00;99.90;;;;;;4992901;28;20097;-58
2023/10/11 01:42:51;;;;;;;16.98;4.90;;;11.00;99.90;;;;;;4992517;28;20133;-60
2023/10/11 01:45:24;;;;;;;18.10;6.03;;;10.90;99.90;;;;;;4985686;28;20046;-60
2023/10/11 01:47:51;;;;;;;17.42;6.03;;;10.90;99.90;;;;;;4994053;28;20034;-60
2023/10/11 01:50:18;;;;;;;18.55;7.15;;;11.00;99.90;;;;;;4983992;28;20559;-60
2023/10/11 01:52:47;;;;;;;14.02;4.65;;;11.10;99.90;;;;;;4988371;28;20558;-60
2023/10/11 01:55:16;;;;;;;12.32;4.47;;;11.10;99.90;;;;;;4989300;28;20054;-60
2023/10/11 01:57:48;;;;;;;20.52;5.18;;;11.00;99.90;;;;;;4989318;28;20046;-60
2023/10/11 02:00:20;;;;;;;17.02;5.72;;;11.00;99.90;;;;;;4991901;28;20507;-61
2023/10/11 02:02:47;;;;;;;20.02;6.80;;;11.00;99.90;;;;;;4989353;28;20042;-60
2023/10/11 02:05:15;;;;;;;;;;;11.00;99.90;;;;;;4991041;28;20522;-61
2023/10/11 02:07:42;;;;;;;16.55;5.82;;;11.10;99.90;;;;;;4991528;28;19925;-60
2023/10/11 02:10:12;;;;;;;18.42;6.07;;;11.10;99.90;;;;;;4992140;28;20046;-61
2023/10/11 02:12:44;;;;;;;19.17;6.68;;;11.10;99.90;;;;;;4979548;28;20038;-59
2023/10/11 02:15:21;;;;;;;17.55;5.45;;;11.20;99.90;;;;;;4988738;28;20051;-61
2023/10/11 02:17:53;;;;;;;23.58;5.35;;;11.20;99.90;;;;;;4993254;28;20097;-60
2023/10/11 02:20:21;;;;;;;19.52;4.90;;;11.00;99.90;;;;;;4983570;28;20054;-60
2023/10/11 02:22:51;;;;;;;;;;;10.90;99.90;;;;;;4991384;28;20042;-61
2023/10/11 02:25:19;;;;;;;16.17;5.75;;;10.80;99.90;;;;;;4982228;28;19922;-60
2023/10/11 02:27:49;;;;;;;15.05;4.97;;;10.80;99.90;;;;;;4978162;28;20062;-60
2023/10/11 02:30:21;;;;;;;15.52;5.10;;;10.80;99.90;;;;;;4991046;28;20515;-58
2023/10/11 02:32:58;;;;;;;17.40;7.00;;;10.80;99.90;;;;;;4994501;28;20038;-58
2023/10/11 02:35:31;;;;;;;22.83;7.50;;;10.80;99.90;;;;;;4989203;28;20054;-59
2023/10/11 02:37:59;;;;;;;24.50;6.75;;;10.90;99.90;;;;;;4987038;28;20050;-61
2023/10/11 02:40:29;;;;;;;26.65;8.18;;;10.90;99.90;;;;;;4988495;28;20054;-61
2023/10/11 02:42:56;;;;;;;18.23;6.75;;;11.00;99.90;;;;;;4995937;28;20042;-59
2023/10/11 02:45:23;;;;;;;27.73;6.85;;;11.10;99.90;;;;;;4984213;28;20052;-61
2023/10/11 02:47:59;;;;;;;20.63;6.55;;;11.10;99.90;;;;;;4983567;28;20039;-60
2023/10/11 02:50:26;;;;;;;20.08;6.70;;;11.10;99.90;;;;;;4988501;28;20047;-59
2023/10/11 02:52:59;;;;;;;14.77;6.05;;;11.10;99.90;;;;;;4992980;28;20043;-59
2023/10/11 02:55:27;;;;;;;23.00;6.50;;;11.10;99.90;;;;;;4991310;28;20051;-60
2023/10/11 02:58:05;;;;;;;19.00;6.63;;;11.00;99.90;;;;;;4986598;28;20477;-60
2023/10/11 03:00:34;;;;;;;26.48;6.35;;;11.00;99.90;;;;;;4983294;28;20038;-59
2023/10/11 03:03:01;;;;;;;18.42;6.60;;;11.00;99.90;;;;;;4982960;28;20097;-61
2023/10/11 03:05:28;;;;;;;19.95;6.45;;;11.00;99.90;;;;;;4991247;28;20129;-59
2023/10/11 03:10:45;;;;;;;16.70;6.60;;;10.90;99.90;;;;;;4984331;28;20105;-60
2023/10/11 03:13:29;;;;;;;21.02;6.88;;;11.00;99.90;;;;;;4986704;28;20133;-60
2023/10/11 03:15:57;;;;;;;18.23;7.55;;;11.00;99.90;;;;;;4991239;28;20410;-60
2023/10/11 03:18:25;;;;;;;21.83;6.15;;;11.00;99.90;;;;;;4991325;28;20046;-60
2023/10/11 03:21:09;;;;;;;27.92;6.03;;;11.10;99.90;;;;;;4987401;28;20524;-61
2023/10/11 03:23:43;;;;;;;21.77;7.07;;;11.10;99.90;;;;;;4984670;28;20106;-61
2023/10/11 03:26:31;;;;;;;15.68;4.93;;;11.10;99.90;;;;;;4992438;28;20373;-60
2023/10/11 03:29:04;;;;;;;11.13;4.53;;;11.10;99.90;;;;;;4988269;28;20056;-60
2023/10/11 03:31:33;;;;;;;14.25;4.95;;;10.90;99.90;;;;;;4990113;28;20047;-61
2023/10/11 03:34:17;;;;;;;14.88;5.10;;;10.70;99.90;;;;;;4991693;28;20050;-60
2023/10/11 03:36:52;;;;;;;13.20;4.85;;;10.50;99.90;;;;;;4985191;28;20129;-60
2023/10/11 03:42:14;;;;;;;19.58;5.60;;;10.40;99.90;;;;;;4987252;28;20458;-60
2023/10/11 03:44:47;;;;;;;10.63;5.10;;;10.40;99.90;;;;;;4990775;28;20471;-61
2023/10/11 03:47:18;;;;;;;23.05;5.55;;;10.40;99.90;;;;;;4975777;28;20046;-60
2023/10/11 03:49:51;;;;;;;16.63;5.47;;;10.40;99.90;;;;;;4981597;28;20400;-60
2023/10/11 03:52:30;;;;;;;15.13;5.20;;;10.30;99.90;;;;;;4988647;28;20046;-61
2023/10/11 03:55:10;;;;;;;18.42;5.38;;;10.20;99.90;;;;;;4991518;28;20041;-60
2023/10/11 03:57:41;;;;;;;16.60;5.75;;;10.20;99.90;;;;;;4991443;28;20078;-60
2023/10/11 04:00:25;;;;;;;22.85;6.88;;;10.10;99.90;;;;;;4987158;28;20061;-60
2023/10/11 04:03:05;;;;;;;16.20;5.43;;;10.00;99.90;;;;;;4992110;28;20053;-61
2023/10/11 04:05:35;;;;;;;17.35;6.35;;;10.10;99.90;;;;;;4990518;28;20395;-60
2023/10/11 04:08:07;;;;;;;20.98;6.93;;;10.20;99.90;;;;;;4987589;28;20649;-60
2023/10/11 04:10:46;;;;;;;22.45;7.30;;;10.30;99.90;;;;;;4989737;28;20050;-60
2023/10/11 04:13:18;;;;;;;17.65;6.78;;;10.40;99.90;;;;;;4991806;28;20487;-61
2023/10/11 04:15:49;;;;;;;17.45;7.25;;;10.40;99.90;;;;;;4984680;28;20042;-60
2023/10/11 04:21:14;;;;;;;21.05;7.18;;;10.50;99.90;;;;;;4990688;28;20046;-60
2023/10/11 04:23:45;;;;;;;13.77;6.43;;;10.50;99.90;;;;;;4990466;28;20093;-60
2023/10/11 04:26:53;;;;;;;16.92;6.32;;;10.50;99.90;;;;;;4991511;28;20030;-61
2023/10/11 04:29:17;;;;;;;16.67;7.00;;;10.50;99.90;;;;;;4984366;28;20566;-60
2023/10/11 04:34:31;;;;;;;19.23;6.93;;;10.50;99.90;;;;;;4988592;28;20050;-60
2023/10/11 04:37:05;;;;;;;20.20;7.32;;;10.50;99.90;;;;;;4983908;28;20057;-60
2023/10/11 04:39:34;;;;;;;21.02;7.10;;;10.50;99.90;;;;;;4982964;28;20042;-61
2023/10/11 04:42:03;;;;;;;15.73;6.60;;;10.50;99.90;;;;;;4995302;28;20410;-61
2023/10/11 04:44:42;;;;;;;16.35;5.57;;;10.50;99.90;;;;;;4993283;28;20134;-61
2023/10/11 04:47:11;;;;;;;21.38;6.47;;;10.50;99.90;;;;;;4991314;28;20046;-60
2023/10/11 04:49:38;;;;;;;18.20;6.18;;;10.40;99.90;;;;;;4987830;28;20406;-61
2023/10/11 04:52:13;;;;;;;14.43;6.10;;;10.40;99.90;;;;;;4991614;28;20126;-61
2023/10/11 04:54:53;;;;;;;22.27;7.05;;;10.40;99.90;;;;;;4990938;28;20038;-60
2023/10/11 04:57:25;;;;;;;19.08;6.43;;;10.40;99.90;;;;;;4991895;28;20042;-61
2023/10/11 04:59:59;;;;;;;21.40;6.20;;;10.40;99.90;;;;;;4992332;28;20121;-58
2023/10/11 05:02:32;;;;;;;21.98;6.78;;;10.30;99.90;;;;;;4989696;28;20146;-59
2023/10/11 05:05:00;;;;;;;25.80;6.43;;;10.30;99.90;;;;;;4993942;28;20046;-59
2023/10/11 05:07:28;;;;;;;21.25;6.57;;;10.30;99.90;;;;;;4992655;28;20535;-59
2023/10/11 05:10:29;;;;;;;17.17;6.63;;;10.20;99.90;;;;;;4980408;28;20112;-60
2023/10/11 05:12:57;;;;;;;19.33;6.30;;;10.20;99.90;;;;;;4978963;28;20589;-59
2023/10/11 05:15:30;;;;;;;16.33;6.85;;;10.20;99.90;;;;;;4984301;28;20054;-60
2023/10/11 05:18:00;;;;;;;18.33;7.00;;;10.30;99.90;;;;;;4987857;28;20030;-61
2023/10/11 05:20:47;;;;;;;26.40;6.80;;;10.30;99.90;;;;;;4983048;28;20080;-61
2023/10/11 05:23:15;;;;;;;18.20;6.00;;;10.30;99.90;;;;;;4990166;28;20226;-59
2023/10/11 05:28:43;;;;;;;16.15;6.22;;;10.20;99.90;;;;;;4984863;28;20387;-59
2023/10/11 05:36:40;;;;;;;17.10;6.15;;;10.30;99.90;;;;;;4989489;28;20081;-57
2023/10/11 05:52:55;;;;;;;24.98;6.72;;;10.20;99.90;;;;;;4985672;28;20502;-60
2023/10/11 05:55:23;;;;;;;25.75;6.82;;;10.20;99.90;;;;;;4990028;28;20100;-60
2023/10/11 05:57:50;;;;;;;22.65;7.47;;;10.20;99.90;;;;;;4992944;28;20143;-59
2023/10/11 06:00:23;;;;;;;16.27;6.72;;;10.20;99.90;;;;;;4988537;28;20100;-60
2023/10/11 06:02:53;;;;;;;31.65;7.05;;;10.20;99.90;;;;;;4993697;28;20069;-60
2023/10/11 06:05:23;;;;;;;25.67;6.65;;;10.20;99.90;;;;;;4993570;28;20075;-60
2023/10/11 06:08:00;;;;;;;23.27;6.97;;;10.20;99.90;;;;;;4988633;28;20077;-60
2023/10/11 06:10:35;;;;;;;23.80;5.97;;;10.20;99.90;;;;;;4987130;28;20495;-59
2023/10/11 06:13:07;;;;;;;26.33;7.75;;;10.20;99.90;;;;;;4976956;28;20125;-59
2023/10/11 06:15:35;;;;;;;21.00;7.22;;;10.30;99.90;;;;;;4982461;28;20466;-60
2023/10/11 06:18:02;;;;;;;17.40;6.05;;;10.30;99.90;;;;;;4977799;28;20053;-61
2023/10/11 06:20:29;;;;;;;19.70;7.70;;;10.30;99.90;;;;;;4988444;28;20049;-59
2023/10/11 06:22:57;;;;;;;27.67;7.03;;;10.30;99.90;;;;;;4992352;28;20078;-60
2023/10/11 06:25:49;;;;;;;23.33;7.00;;;10.30;99.90;;;;;;4990387;28;20042;-60
2023/10/11 06:28:14;;;;;;;24.67;7.40;;;10.40;99.90;;;;;;4992058;28;20088;-59
2023/10/11 06:30:47;;;;;;;22.20;6.40;;;10.40;99.90;;;;;;4992054;28;20071;-60
2023/10/11 06:33:14;;;;;;;20.42;7.28;;;10.40;99.90;;;;;;4984059;28;20549;-59
2023/10/11 06:35:49;;;;;;;20.63;6.97;;;10.40;99.90;;;;;;4992546;28;20034;-60
2023/10/11 06:38:17;;;;;;;25.98;7.05;;;10.40;99.90;;;;;;4985944;28;20074;-60
2023/10/11 06:40:47;;;;;;;19.90;6.78;;;10.40;99.90;;;;;;4984415;28;20480;-59
2023/10/11 06:43:14;;;;;;;20.42;7.15;;;10.50;99.90;;;;;;4986933;28;20453;-61
2023/10/11 06:45:42;;;;;;;16.77;6.40;;;10.60;99.90;;;;;;4990878;28;20038;-60
2023/10/11 06:48:10;;;;;;;21.45;6.93;;;10.70;99.90;;;;;;4986363;28;20054;-59
2023/10/11 06:50:38;;;;;;;18.48;7.00;;;10.90;99.90;;;;;;4990165;28;20078;-60
2023/10/11 06:53:08;;;;;;;21.17;7.32;;;11.10;99.90;;;;;;4992869;28;20093;-61
2023/10/11 06:55:39;;;;;;;16.80;6.68;;;11.30;99.90;;;;;;4984000;28;20050;-60
2023/10/11 06:58:09;;;;;;;18.63;6.32;;;11.40;99.90;;;;;;4987732;28;20495;-60
2023/10/11 07:00:37;;;;;;;16.17;5.75;;;11.50;99.90;;;;;;4989225;28;20104;-60
2023/10/11 07:05:56;;;;;;;20.30;6.13;;;11.80;99.90;;;;;;4984263;28;20046;-57
2023/10/11 07:08:35;;;;;;;23.77;6.53;;;11.90;99.90;;;;;;4991413;28;20109;-60
2023/10/11 07:16:19;;;;;;;18.40;6.63;;;12.30;99.90;;;;;;4985804;28;20510;-59
2023/10/11 07:18:48;;;;;;;15.68;6.93;;;12.50;99.90;;;;;;4982148;28;20047;-60
2023/10/11 07:21:16;;;;;;;21.23;6.70;;;12.60;99.90;;;;;;4985556;28;20038;-59
2023/10/11 07:23:56;;;;;;;14.27;6.20;;;12.70;99.90;;;;;;4989676;28;20050;-60
2023/10/11 07:29:02;;;;;;;14.18;6.13;;;12.80;99.90;;;;;;4980940;28;20568;-60
2023/10/11 07:31:35;;;;;;;17.85;5.28;;;12.90;99.90;;;;;;4987382;28;20396;-60
2023/10/11 07:34:06;;;;;;;18.85;5.72;;;12.90;99.90;;;;;;4984090;28;20542;-60
2023/10/11 07:36:37;;;;;;;18.38;5.35;;;12.90;99.90;;;;;;4991507;28;20126;-59
2023/10/11 07:42:09;;;;;;;15.02;5.68;;;13.10;99.90;;;;;;4986636;28;20085;-61
2023/10/11 07:44:38;;;;;;;19.73;6.20;;;13.20;99.90;;;;;;4988720;28;20066;-60
2023/10/11 07:47:15;;;;;;;18.00;6.07;;;13.20;99.90;;;;;;4984562;28;20064;-61
2023/10/11 07:49:43;;;;;;;22.15;5.70;;;13.10;99.90;;;;;;4983328;28;20489;-60
2023/10/11 07:52:19;;;;;;;14.77;6.15;;;12.90;99.90;;;;;;4986747;28;20046;-60
2023/10/11 07:54:46;;;;;;;20.75;6.95;;;12.80;99.90;;;;;;4975563;28;20042;-60
2023/10/11 07:57:13;;;;;;;13.75;5.80;;;13.00;99.90;;;;;;4991657;28;20041;-60
2023/10/11 07:59:42;;;;;;;14.38;5.60;;;13.20;99.90;;;;;;4982621;28;20439;-60
2023/10/11 08:02:26;;;;;;;19.90;6.25;;;13.50;99.90;;;;;;4983405;28;20042;-60
2023/10/11 08:04:54;;;;;;;18.25;5.47;;;13.80;99.90;;;;;;4990710;28;20066;-59
2023/10/11 08:07:23;;;;;;;21.83;5.47;;;13.90;99.90;;;;;;4987831;28;20046;-60
2023/10/11 08:09:55;;;;;;;18.40;5.78;;;14.00;99.90;;;;;;4991061;28;20046;-60
2023/10/11 08:12:23;;;;;;;14.10;4.88;;;14.10;99.90;;;;;;4990724;28;20038;-60
2023/10/11 08:14:56;;;;;;;20.98;5.53;;;14.30;99.90;;;;;;4987963;28;20050;-60
2023/10/11 08:17:24;;;;;;;20.98;5.78;;;14.40;99.90;;;;;;4995296;28;20491;-60
2023/10/11 08:19:57;;;;;;;16.30;5.40;;;14.50;99.90;;;;;;4993153;28;20121;-61
2023/10/11 08:22:23;;;;;;;15.57;5.20;;;14.60;99.90;;;;;;4983811;28;20146;-60
2023/10/11 08:24:56;;;;;;;16.55;5.53;;;14.70;99.90;;;;;;4988747;28;20462;-61
2023/10/11 08:30:09;;;;;;;26.05;6.15;;;14.90;99.90;;;;;;4994604;28;20073;-60
2023/10/11 08:32:43;;;;;;;20.70;5.28;;;15.00;99.90;;;;;;4980638;28;20433;-60
2023/10/11 08:35:17;;;;;;;14.00;4.75;;;15.10;99.90;;;;;;4987863;28;20042;-61
2023/10/11 08:37:46;;;;;;;13.98;5.45;;;15.20;99.90;;;;;;4983572;28;20046;-60
2023/10/11 08:40:23;;;;;;;13.73;4.95;;;15.30;99.90;;;;;;4991003;28;20077;-60
2023/10/11 08:42:51;;;;;;;13.38;4.82;;;15.40;99.90;;;;;;4990322;28;20068;-60
2023/10/11 08:45:33;;;;;;;19.20;5.70;;;15.50;99.90;;;;;;4988548;28;20048;-60
2023/10/11 08:48:05;;;;;;;17.35;5.97;;;15.70;99.90;;;;;;4979549;28;20479;-61
2023/10/11 08:50:34;;;;;;;21.10;5.43;;;15.80;99.90;;;;;;4994518;28;20407;-60
2023/10/11 08:53:08;;;;;;;19.17;5.47;;;15.80;99.90;;;;;;4990388;28;20046;-61
2023/10/11 08:55:39;;;;;;;20.60;4.88;;;15.90;99.90;;;;;;4982714;28;20047;-60
2023/10/11 08:58:14;;;;;;;19.17;5.75;;;16.00;99.90;;;;;;4986505;28;20064;-59
2023/10/11 09:00:47;;;;;;;17.15;5.45;;;16.10;99.90;;;;;;4993946;28;20034;-60
2023/10/11 09:03:19;;;;;;;18.23;5.25;;;16.20;99.90;;;;;;4986926;28;20142;-61
2023/10/11 09:05:47;;;;;;;18.58;5.47;;;16.10;99.90;;;;;;4982694;28;20337;-59
2023/10/11 09:08:31;;;;;;;17.98;5.40;;;16.20;99.90;;;;;;4994261;28;20042;-61
2023/10/11 09:11:11;;;;;;;23.10;6.07;;;16.40;99.90;;;;;;4990882;28;20484;-60
2023/10/11 09:13:40;;;;;;;19.05;6.28;;;16.50;99.90;;;;;;4987388;28;21015;-61
2023/10/11 09:16:13;;;;;;;17.65;5.10;;;16.60;99.90;;;;;;4993974;28;20052;-60
2023/10/11 09:18:46;;;;;;;24.63;5.13;;;16.60;99.90;;;;;;4993129;28;20050;-60
2023/10/11 09:21:17;;;;;;;16.95;4.85;;;16.60;99.90;;;;;;4986011;28;20427;-60
2023/10/11 09:23:49;;;;;;;16.15;4.72;;;16.80;99.90;;;;;;4993372;28;20045;-60
2023/10/11 09:26:34;;;;;;;15.40;4.35;;;16.90;99.90;;;;;;4993246;28;20047;-59
2023/10/11 09:29:13;;;;;;;13.38;4.93;;;17.00;99.90;;;;;;4993674;28;20042;-61
2023/10/11 09:31:58;;;;;;;13.07;4.28;;;17.10;99.90;;;;;;4986150;28;20034;-60
2023/10/11 09:34:30;;;;;;;13.50;4.47;;;17.30;99.90;;;;;;4988635;28;20045;-60
2023/10/11 09:37:02;;;;;;;12.00;4.63;;;17.40;99.90;;;;;;4983898;28;20039;-61
2023/10/11 09:39:30;;;;;;;13.07;4.03;;;17.40;99.90;;;;;;4982110;28;20050;-60
2023/10/11 09:42:02;;;;;;;17.77;4.45;;;17.50;99.90;;;;;;4991758;28;20042;-60
2023/10/11 09:44:37;;;;;;;13.20;4.65;;;17.60;99.90;;;;;;4987465;28;20073;-61
2023/10/11 09:47:05;;;;;;;17.13;4.70;;;17.70;99.90;;;;;;4993486;28;20039;-60
2023/10/11 09:49:43;;;;;;;13.95;4.22;;;17.80;99.90;;;;;;4986486;28;20035;-61
2023/10/11 09:52:11;;;;;;;13.02;4.65;;;17.80;99.90;;;;;;4980277;28;20041;-60
2023/10/11 09:54:39;;;;;;;9.80;3.65;;;17.80;99.90;;;;;;4973713;28;20484;-60
2023/10/11 09:57:13;;;;;;;21.55;4.57;;;17.90;99.90;;;;;;4984576;28;20050;-61
2023/10/11 10:00:07;;;;;;;15.05;4.13;;;17.90;99.90;;;;;;4978240;28;20054;-61
2023/10/11 10:02:37;;;;;;;10.38;3.95;;;18.10;99.90;;;;;;4973316;28;20050;-60
2023/10/11 10:05:07;;;;;;;16.30;4.75;;;18.30;99.90;;;;;;4991922;28;20038;-60
2023/10/11 10:10:08;;;;;;;15.52;4.43;;;18.40;99.90;;;;;;4992473;28;20050;-61
2023/10/11 10:12:43;;;;;;;13.82;4.20;;;18.40;99.90;;;;;;4983895;28;20034;-61
2023/10/11 10:15:20;;;;;;;13.15;4.15;;;18.60;99.90;;;;;;4982085;28;20055;-61
2023/10/11 10:18:03;;;;;;;15.52;3.67;;;18.70;99.90;;;;;;4975660;28;20129;-60
2023/10/11 10:20:33;;;;;;;12.55;3.83;;;18.80;99.90;;;;;;4986582;28;20042;-61
2023/10/11 10:23:16;;;;;;;12.02;3.75;;;18.80;99.90;;;;;;4991576;28;20046;-60
2023/10/11 10:25:46;;;;;;;10.82;4.15;;;18.90;99.90;;;;;;4984460;28;20043;-60
2023/10/11 10:28:34;;;;;;;14.07;4.32;;;19.00;99.90;;;;;;4992300;28;20073;-61
2023/10/11 10:31:11;;;;;;;;;;;19.20;99.90;;;;;;4991240;28;20054;-60
2023/10/11 10:33:43;;;;;;;13.25;3.80;;;19.30;99.90;;;;;;4986904;28;19929;-61
2023/10/11 10:36:20;;;;;;;18.73;4.45;;;19.30;99.90;;;;;;4981208;28;20503;-61
2023/10/11 10:41:37;;;;;;;11.75;4.20;;;19.30;99.90;;;;;;4972855;28;20054;-60
2023/10/11 10:44:21;;;;;;;14.20;3.67;;;19.30;99.90;;;;;;4983143;28;20046;-59
2023/10/11 10:46:49;;;;;;;11.68;3.70;;;19.40;99.90;;;;;;4984423;28;20383;-61
2023/10/11 10:49:18;;;;;;;11.45;4.00;;;19.50;99.90;;;;;;4991843;28;20038;-61
2023/10/11 10:51:48;;;;;;;15.23;4.30;;;19.40;99.90;;;;;;4984705;28;20046;-60
2023/10/11 10:54:22;;;;;;;15.07;3.85;;;19.60;99.90;;;;;;4991932;28;20145;-60
2023/10/11 10:56:53;;;;;;;14.85;4.18;;;19.70;99.90;;;;;;4984036;28;20053;-60
2023/10/11 10:59:21;;;;;;;11.85;3.90;;;19.70;99.90;;;;;;4990694;28;20084;-61
2023/10/11 11:01:50;;;;;;;13.20;3.85;;;19.70;99.90;;;;;;4979985;28;20044;-61
2023/10/11 11:04:20;;;;;;;15.80;4.18;;;19.70;99.90;;;;;;4992007;28;20061;-61
2023/10/11 11:06:50;;;;;;;15.55;4.03;;;19.70;99.90;;;;;;4985222;28;20057;-62
2023/10/11 11:09:27;;;;;;;7.00;3.55;;;19.80;99.90;;;;;;4988869;28;20042;-61
2023/10/11 11:12:09;;;;;;;14.88;3.75;;;19.80;99.90;;;;;;4979946;28;20135;-60
2023/10/11 11:14:36;;;;;;;16.08;3.60;;;20.00;99.90;;;;;;4983222;28;20590;-60
2023/10/11 11:17:09;;;;;;;16.23;3.85;;;20.20;99.90;;;;;;4991940;28;20045;-59
2023/10/11 11:19:37;;;;;;;13.70;3.42;;;20.40;99.90;;;;;;4986178;28;20133;-60
2023/10/11 11:22:11;;;;;;;11.40;3.55;;;20.40;99.90;;;;;;4989455;28;20053;-60
2023/10/11 11:24:42;;;;;;;15.50;4.28;;;20.30;99.90;;;;;;4978356;28;20046;-59
2023/10/11 11:27:25;;;;;;;10.88;3.72;;;20.50;99.90;;;;;;4988331;28;20039;-60
2023/10/11 11:30:02;;;;;;;19.33;3.88;;;20.60;99.90;;;;;;4987753;28;20039;-60
2023/10/11 11:32:39;;;;;;;14.30;3.20;;;20.80;99.90;;;;;;4986974;28;20508;-60
2023/10/11 11:35:10;;;;;;;;;;;20.90;99.90;;;;;;5004588;28;20046;-61
2023/10/11 11:37:39;;;;;;;19.20;4.35;;;20.90;99.90;;;;;;4983672;28;20012;-61
2023/10/11 11:40:23;;;;;;;9.85;3.58;;;21.00;99.90;;;;;;4983533;28;20049;-61
2023/10/11 11:42:50;;;;;;;12.77;3.42;;;21.00;99.90;;;;;;4980090;28;20046;-59
2023/10/11 11:45:18;;;;;;;7.60;3.03;;;21.10;99.90;;;;;;4991508;28;20047;-61
2023/10/11 11:47:58;;;;;;;10.35;3.90;;;21.20;99.90;;;;;;4982850;28;20088;-59
2023/10/11 11:50:30;;;;;;;19.70;3.28;;;21.20;99.90;;;;;;4990645;28;20399;-60
2023/10/11 11:52:58;;;;;;;10.98;3.70;;;21.30;99.90;;;;;;4984883;28;20042;-61
2023/10/11 11:55:25;;;;;;;12.90;4.25;;;21.30;99.90;;;;;;4988123;28;20460;-61
2023/10/11 11:57:53;;;;;;;10.13;3.58;;;21.30;99.90;;;;;;4979274;28;20455;-61
2023/10/11 12:03:04;;;;;;;10.77;3.80;;;21.50;99.90;;;;;;4983972;28;20050;-60
2023/10/11 12:05:41;;;;;;;9.13;3.65;;;21.50;99.90;;;;;;4988261;28;20042;-60
2023/10/11 12:08:18;;;;;;;17.25;4.18;;;21.60;99.90;;;;;;4983121;28;20047;-61
2023/10/11 12:10:47;;;;;;;14.55;3.15;;;21.60;99.90;;;;;;4991170;28;20380;-60
2023/10/11 12:13:23;;;;;;;14.07;4.30;;;21.80;99.90;;;;;;4980883;28;20046;-60
2023/10/11 12:15:56;;;;;;;11.70;2.97;;;21.90;99.90;;;;;;4985009;28;20058;-58
2023/10/11 12:18:33;;;;;;;11.77;4.05;;;21.90;99.90;;;;;;4991218;28;20077;-61
2023/10/11 12:21:10;;;;;;;13.00;3.50;;;21.80;99.90;;;;;;4983293;28;20058;-60
2023/10/11 12:23:46;;;;;;;15.15;4.43;;;21.80;99.90;;;;;;4975447;28;20042;-61
2023/10/11 12:26:16;;;;;;;13.13;3.38;;;21.90;99.90;;;;;;4988538;28;20042;-59
2023/10/11 12:28:45;;;;;;;12.27;3.58;;;22.00;99.90;;;;;;4983921;28;20100;-61
2023/10/11 12:31:12;;;;;;;15.20;4.00;;;22.10;99.90;;;;;;4980332;28;20534;-61
2023/10/11 12:33:40;;;;;;;8.25;3.28;;;22.10;99.90;;;;;;4984840;28;20043;-56
2023/10/11 12:36:07;;;;;;;5.90;3.17;;;22.20;99.90;;;;;;4981951;28;20158;-60
2023/10/11 12:38:36;;;;;;;15.50;3.63;;;22.20;99.90;;;;;;4987498;28;20089;-61
2023/10/11 12:41:04;;;;;;;16.85;3.90;;;22.10;99.90;;;;;;4976603;28;20512;-61
2023/10/11 12:43:35;;;;;;;10.95;3.67;;;22.10;99.90;;;;;;4983705;28;20414;-61
2023/10/11 12:46:02;;;;;;;10.40;3.67;;;22.20;99.90;;;;;;4981782;28;20058;-61
2023/10/11 12:48:29;;;;;;;11.30;3.72;;;22.10;99.90;;;;;;4987390;28;20403;-61
2023/10/11 12:50:58;;;;;;;10.20;3.20;;;22.10;99.90;;;;;;4986484;28;20092;-61
2023/10/11 12:53:29;;;;;;;14.77;3.92;;;22.10;99.90;;;;;;4982731;28;20040;-61
2023/10/11 12:55:56;;;;;;;9.75;3.90;;;22.00;99.90;;;;;;4983060;28;20117;-60
2023/10/11 12:58:27;;;;;;;11.55;3.50;;;22.20;99.90;;;;;;4981076;28;20104;-60
2023/10/11 13:01:11;;;;;;;12.80;3.65;;;22.20;99.90;;;;;;4990719;28;20093;-61
2023/10/11 13:03:39;;;;;;;8.27;3.90;;;22.20;99.90;;;;;;4982561;28;20118;-60
2023/10/11 13:06:10;;;;;;;10.02;3.25;;;22.30;99.90;;;;;;4982763;28;20042;-61
2023/10/11 13:08:38;;;;;;;10.50;3.72;;;22.20;99.90;;;;;;4989275;28;20066;-61
2023/10/11 13:11:11;;;;;;;14.77;3.67;;;22.20;99.90;;;;;;4990566;28;20376;-60
2023/10/11 13:13:38;;;;;;;23.38;4.13;;;22.20;99.90;;;;;;4987328;28;20664;-60
2023/10/11 13:16:06;;;;;;;13.85;3.75;;;22.10;99.90;;;;;;4994115;28;20050;-60
2023/10/11 13:18:38;;;;;;;18.15;3.65;;;22.10;99.90;;;;;;4990484;28;20042;-61
2023/10/11 13:21:10;;;;;;;9.02;3.22;;;22.10;99.90;;;;;;4987424;28;20129;-61
2023/10/11 13:23:40;;;;;;;14.32;3.45;;;22.10;99.90;;;;;;4987031;28;20042;-60
2023/10/11 13:26:07;;;;;;;15.43;3.72;;;22.10;99.90;;;;;;4979544;28;20062;-61
2023/10/11 13:28:36;;;;;;;14.23;3.97;;;22.20;99.90;;;;;;4986183;28;20038;-61
2023/10/11 13:31:04;;;;;;;15.32;3.35;;;22.30;99.90;;;;;;4985348;28;20526;-61
2023/10/11 13:33:35;;;;;;;11.85;3.88;;;22.30;99.90;;;;;;4977159;28;20460;-61
2023/10/11 13:36:05;;;;;;;12.20;3.70;;;22.40;99.80;;;;;;4980876;28;20109;-61
2023/10/11 13:38:34;;;;;;;15.93;3.53;;;22.30;99.90;;;;;;4982374;28;20049;-60
2023/10/11 13:41:01;;;;;;;12.20;3.92;;;22.30;99.90;;;;;;4982276;28;20109;-60
2023/10/11 13:43:28;;;;;;;15.15;3.55;;;22.30;99.90;;;;;;4988974;28;20046;-60
2023/10/11 13:46:07;;;;;;;13.45;4.40;;;22.30;99.90;;;;;;4982298;28;20038;-61
2023/10/11 13:48:37;;;;;;;8.80;3.22;;;22.30;99.90;;;;;;4985582;28;20046;-60
2023/10/11 13:51:06;;;;;;;12.18;4.13;;;22.40;99.90;;;;;;4983193;28;20054;-61
2023/10/11 13:53:41;;;;;;;20.17;4.53;;;22.60;99.90;;;;;;4990231;28;20049;-61
2023/10/11 13:56:21;;;;;;;12.65;3.85;;;22.60;99.90;;;;;;4989996;28;20056;-61
2023/10/11 13:58:48;;;;;;;11.10;3.05;;;22.60;99.90;;;;;;4978661;28;20373;-60
2023/10/11 14:01:46;;;;;;;12.00;3.17;;;22.60;99.90;;;;;;4989740;28;20050;-61